createdAt,value
2017-08-14T00:00:24.626Z,22.10
2017-08-14T00:02:52.096Z,22.10
2017-08-14T00:05:19.605Z,22.10
2017-08-14T00:07:47.150Z,22.10
2017-08-14T00:10:14.645Z,22.00
2017-08-14T00:12:42.161Z,22.00
2017-08-14T00:15:09.628Z,22.00
2017-08-14T00:17:37.109Z,21.90
2017-08-14T00:20:04.589Z,21.90
2017-08-14T00:22:32.077Z,21.90
2017-08-14T00:24:59.575Z,21.90
2017-08-14T00:27:27.044Z,21.80
2017-08-14T00:29:54.502Z,21.80
2017-08-14T00:32:21.973Z,21.80
2017-08-14T00:34:49.430Z,21.80
2017-08-14T00:37:16.938Z,21.70
2017-08-14T00:39:44.402Z,21.70
2017-08-14T00:42:11.870Z,21.70
2017-08-14T00:44:39.332Z,21.70
2017-08-14T00:47:06.824Z,21.70
2017-08-14T00:49:34.283Z,21.60
2017-08-14T00:52:01.743Z,21.60
2017-08-14T00:54:29.205Z,21.60
2017-08-14T00:56:56.671Z,21.60
2017-08-14T00:59:24.145Z,21.50
2017-08-14T01:01:51.605Z,21.50
2017-08-14T01:04:19.080Z,21.50
2017-08-14T01:06:46.537Z,21.40
2017-08-14T01:09:14.020Z,21.40
2017-08-14T01:11:41.522Z,21.40
2017-08-14T01:14:08.991Z,21.40
2017-08-14T01:16:36.470Z,21.40
2017-08-14T01:19:03.927Z,21.30
2017-08-14T01:21:31.416Z,21.30
2017-08-14T01:23:58.885Z,21.30
2017-08-14T01:26:26.353Z,21.30
2017-08-14T01:28:53.826Z,21.20
2017-08-14T01:31:21.302Z,21.20
2017-08-14T01:33:48.772Z,21.20
2017-08-14T01:36:16.233Z,21.10
2017-08-14T01:38:49.460Z,21.10
2017-08-14T01:41:16.969Z,21.10
2017-08-14T01:43:44.431Z,21.10
2017-08-14T01:46:11.908Z,21.10
2017-08-14T01:48:39.376Z,21.00
2017-08-14T01:51:06.837Z,21.00
2017-08-14T01:53:34.308Z,21.00
2017-08-14T01:56:01.789Z,21.00
2017-08-14T01:58:29.264Z,20.90
2017-08-14T02:00:56.735Z,20.90
2017-08-14T02:03:24.215Z,20.90
2017-08-14T02:05:51.752Z,20.90
2017-08-14T02:08:19.222Z,20.90
2017-08-14T02:10:46.675Z,20.80
2017-08-14T02:13:14.143Z,20.80
2017-08-14T02:15:41.602Z,20.80
2017-08-14T02:18:09.069Z,20.80
2017-08-14T02:20:36.521Z,20.70
2017-08-14T02:23:03.986Z,20.70
2017-08-14T02:25:31.485Z,20.70
2017-08-14T02:27:58.962Z,20.70
2017-08-14T02:30:26.442Z,20.70
2017-08-14T02:32:53.890Z,20.70
2017-08-14T02:35:21.353Z,20.60
2017-08-14T02:37:48.813Z,20.60
2017-08-14T02:40:16.291Z,20.60
2017-08-14T02:42:43.752Z,20.60
2017-08-14T02:45:11.223Z,20.50
2017-08-14T02:47:38.682Z,20.50
2017-08-14T02:50:06.152Z,20.50
2017-08-14T02:52:33.660Z,20.50
2017-08-14T02:55:01.114Z,20.40
2017-08-14T02:57:28.574Z,20.40
2017-08-14T02:59:56.046Z,20.40
2017-08-14T03:02:23.511Z,20.40
2017-08-14T03:04:50.968Z,20.40
2017-08-14T03:07:18.465Z,20.40
2017-08-14T03:09:45.932Z,20.30
2017-08-14T03:12:13.393Z,20.30
2017-08-14T03:14:40.869Z,20.30
2017-08-14T03:17:08.345Z,20.30
2017-08-14T03:19:35.843Z,20.20
2017-08-14T03:22:03.314Z,20.20
2017-08-14T03:24:30.793Z,20.20
2017-08-14T03:26:58.277Z,20.20
2017-08-14T03:29:25.757Z,20.20
2017-08-14T03:31:53.222Z,20.20
2017-08-14T03:34:20.692Z,20.10
2017-08-14T03:36:48.170Z,20.10
2017-08-14T03:39:15.654Z,20.10
2017-08-14T03:41:43.117Z,20.10
2017-08-14T03:44:10.603Z,20.10
2017-08-14T03:46:38.054Z,20.00
2017-08-14T03:49:05.530Z,20.00
2017-08-14T03:51:32.975Z,20.00
2017-08-14T03:54:00.452Z,20.00
2017-08-14T03:56:27.929Z,20.00
2017-08-14T03:58:55.379Z,20.00
2017-08-14T04:01:22.915Z,20.00
2017-08-14T04:03:50.371Z,20.00
2017-08-14T04:06:17.866Z,20.00
2017-08-14T04:08:45.336Z,19.90
2017-08-14T04:11:12.801Z,19.90
2017-08-14T04:13:40.279Z,19.90
2017-08-14T04:16:07.740Z,19.90
2017-08-14T04:18:35.191Z,19.90
2017-08-14T04:21:02.665Z,19.80
2017-08-14T04:23:30.137Z,19.80
2017-08-14T04:25:57.616Z,19.80
2017-08-14T04:28:25.081Z,19.80
2017-08-14T04:30:52.566Z,19.80
2017-08-14T04:33:20.026Z,19.80
2017-08-14T04:35:47.487Z,19.80
2017-08-14T04:38:14.963Z,19.80
2017-08-14T04:40:42.417Z,19.80
2017-08-14T04:43:09.889Z,19.80
2017-08-14T04:45:37.374Z,19.80
2017-08-14T04:48:04.881Z,19.80
2017-08-14T04:50:32.350Z,19.80
2017-08-14T04:52:59.813Z,19.80
2017-08-14T04:55:27.304Z,19.70
2017-08-14T04:57:54.759Z,19.80
2017-08-14T05:00:22.235Z,19.80
2017-08-14T05:02:49.686Z,19.70
2017-08-14T05:05:17.152Z,19.70
2017-08-14T05:07:44.626Z,19.80
2017-08-14T05:10:12.086Z,19.80
2017-08-14T05:12:39.572Z,19.80
2017-08-14T05:15:07.055Z,19.80
2017-08-14T05:17:34.532Z,19.80
2017-08-14T05:20:02.018Z,19.70
2017-08-14T05:22:29.477Z,19.70
2017-08-14T05:24:56.941Z,19.80
2017-08-14T05:27:24.389Z,19.80
2017-08-14T05:29:51.862Z,19.80
2017-08-14T05:32:19.316Z,19.70
2017-08-14T05:34:46.771Z,19.80
2017-08-14T05:37:14.221Z,19.80
2017-08-14T05:39:41.695Z,19.80
2017-08-14T05:42:09.163Z,19.80
2017-08-14T05:44:36.645Z,19.80
2017-08-14T05:47:04.114Z,19.80
2017-08-14T05:49:31.605Z,19.80
2017-08-14T05:51:59.118Z,19.80
2017-08-14T05:54:26.586Z,19.80
2017-08-14T05:56:54.089Z,19.80
2017-08-14T05:59:21.552Z,19.80
2017-08-14T06:01:49.062Z,19.80
2017-08-14T06:04:16.573Z,19.90
2017-08-14T06:06:44.035Z,19.90
2017-08-14T06:09:11.507Z,19.90
2017-08-14T06:11:38.991Z,19.90
2017-08-14T06:14:06.477Z,20.00
2017-08-14T06:16:33.949Z,20.00
2017-08-14T06:19:01.462Z,20.00
2017-08-14T06:21:28.937Z,20.10
2017-08-14T06:23:56.417Z,20.10
2017-08-14T06:26:23.896Z,20.10
2017-08-14T06:28:51.379Z,20.20
2017-08-14T06:31:18.862Z,20.20
2017-08-14T06:33:46.345Z,20.30
2017-08-14T06:36:13.800Z,20.30
2017-08-14T06:38:41.333Z,20.40
2017-08-14T06:41:08.812Z,20.40
2017-08-14T06:43:36.284Z,20.50
2017-08-14T06:46:04.578Z,20.50
2017-08-14T06:48:32.069Z,20.60
2017-08-14T06:50:59.557Z,20.60
2017-08-14T06:53:27.048Z,20.70
2017-08-14T06:55:54.569Z,20.70
2017-08-14T06:58:22.070Z,20.80
2017-08-14T07:00:49.563Z,20.90
2017-08-14T07:03:17.030Z,21.00
2017-08-14T07:05:44.537Z,21.10
2017-08-14T07:08:12.008Z,21.20
2017-08-14T07:10:39.499Z,21.30
2017-08-14T07:13:06.977Z,21.40
2017-08-14T07:15:34.654Z,21.50
2017-08-14T07:18:02.184Z,21.60
2017-08-14T07:20:29.681Z,21.70
2017-08-14T07:22:57.207Z,21.90
2017-08-14T07:25:24.694Z,22.00
2017-08-14T07:27:52.173Z,22.10
2017-08-14T07:30:19.672Z,22.30
2017-08-14T07:32:47.165Z,22.50
2017-08-14T07:35:14.637Z,22.60
2017-08-14T07:37:42.099Z,22.70
2017-08-14T07:40:09.556Z,22.90
2017-08-14T07:42:37.061Z,23.00
2017-08-14T07:45:04.539Z,23.20
2017-08-14T07:47:32.035Z,23.30
2017-08-14T07:49:59.525Z,23.50
2017-08-14T07:52:27.018Z,23.70
2017-08-14T07:54:54.501Z,23.90
2017-08-14T07:57:21.976Z,24.00
2017-08-14T07:59:49.464Z,24.20
2017-08-14T08:02:16.972Z,24.40
2017-08-14T08:04:44.489Z,24.50
2017-08-14T08:07:11.983Z,24.70
2017-08-14T08:09:39.486Z,24.90
2017-08-14T08:12:06.990Z,25.10
2017-08-14T08:14:34.470Z,25.30
2017-08-14T08:17:01.921Z,25.50
2017-08-14T08:19:29.426Z,25.70
2017-08-14T08:21:56.910Z,25.80
2017-08-14T08:24:24.374Z,25.90
2017-08-14T08:26:51.898Z,26.00
2017-08-14T08:29:19.365Z,26.20
2017-08-14T08:31:46.836Z,26.40
2017-08-14T08:34:14.326Z,26.50
2017-08-14T08:36:41.894Z,26.70
2017-08-14T08:39:09.530Z,26.70
2017-08-14T08:41:37.024Z,26.90
2017-08-14T08:44:04.502Z,27.00
2017-08-14T08:46:31.998Z,27.10
2017-08-14T08:48:59.503Z,27.30
2017-08-14T08:51:26.972Z,27.40
2017-08-14T08:53:54.446Z,27.50
2017-08-14T08:56:21.959Z,27.60
2017-08-14T08:58:49.423Z,27.80
2017-08-14T09:01:16.870Z,27.90
2017-08-14T09:03:44.342Z,28.00
2017-08-14T09:06:11.801Z,28.10
2017-08-14T09:08:39.270Z,28.20
2017-08-14T09:11:06.796Z,28.30
2017-08-14T09:13:34.257Z,28.40
2017-08-14T09:16:01.739Z,28.50
2017-08-14T09:18:29.233Z,28.70
2017-08-14T09:20:56.703Z,28.90
2017-08-14T09:23:24.212Z,29.00
2017-08-14T09:25:51.677Z,29.10
2017-08-14T09:28:19.156Z,29.20
2017-08-14T09:30:46.624Z,29.40
2017-08-14T09:33:14.101Z,29.50
2017-08-14T09:35:41.605Z,29.60
2017-08-14T09:38:09.097Z,29.70
2017-08-14T09:40:36.585Z,29.80
2017-08-14T09:43:04.058Z,29.90
2017-08-14T09:45:31.566Z,30.00
2017-08-14T09:47:59.045Z,30.10
2017-08-14T09:50:26.556Z,30.20
2017-08-14T09:52:54.210Z,30.40
2017-08-14T09:55:21.716Z,30.50
2017-08-14T09:57:49.181Z,30.70
2017-08-14T10:00:16.677Z,30.80
2017-08-14T10:02:44.166Z,30.90
2017-08-14T10:05:11.647Z,31.10
2017-08-14T10:07:39.106Z,31.10
2017-08-14T10:10:06.570Z,31.20
2017-08-14T10:12:34.074Z,31.40
2017-08-14T10:15:01.586Z,31.50
2017-08-14T10:17:29.047Z,31.60
2017-08-14T10:19:56.501Z,31.70
2017-08-14T10:22:23.970Z,31.80
2017-08-14T10:24:51.429Z,31.90
2017-08-14T10:27:18.900Z,32.00
2017-08-14T10:29:46.362Z,32.10
2017-08-14T10:32:13.846Z,32.20
2017-08-14T10:34:41.297Z,32.40
2017-08-14T10:37:08.777Z,32.50
2017-08-14T10:39:36.233Z,32.60
2017-08-14T10:42:03.696Z,32.70
2017-08-14T10:44:31.192Z,32.70
2017-08-14T10:46:58.657Z,32.80
2017-08-14T10:49:26.122Z,32.90
2017-08-14T10:51:53.609Z,33.00
2017-08-14T10:54:21.113Z,33.10
2017-08-14T10:56:48.600Z,33.30
2017-08-14T10:59:16.097Z,33.40
2017-08-14T11:01:43.591Z,33.50
2017-08-14T11:04:11.062Z,33.60
2017-08-14T11:06:38.510Z,33.70
2017-08-14T11:09:05.997Z,33.80
2017-08-14T11:11:33.464Z,33.90
2017-08-14T11:14:00.958Z,34.10
2017-08-14T11:16:28.450Z,34.30
2017-08-14T11:18:55.927Z,34.60
2017-08-14T11:21:23.393Z,35.00
2017-08-14T11:23:50.923Z,35.60
2017-08-14T11:26:18.435Z,36.50
2017-08-14T11:28:45.896Z,37.70
2017-08-14T11:31:13.366Z,38.50
2017-08-14T11:33:40.830Z,39.10
2017-08-14T11:36:08.317Z,39.50
2017-08-14T11:38:35.788Z,39.90
2017-08-14T11:41:03.246Z,40.30
2017-08-14T11:43:30.723Z,40.60
2017-08-14T11:45:58.178Z,40.90
2017-08-14T11:48:25.659Z,41.10
2017-08-14T11:50:53.130Z,41.30
2017-08-14T11:53:20.594Z,41.50
2017-08-14T11:55:48.081Z,41.80
2017-08-14T11:58:15.554Z,41.90
2017-08-14T12:00:43.028Z,42.20
2017-08-14T12:03:10.507Z,42.30
2017-08-14T12:05:37.980Z,42.40
2017-08-14T12:08:05.435Z,42.60
2017-08-14T12:10:32.911Z,42.60
2017-08-14T12:13:00.358Z,42.70
2017-08-14T12:15:27.878Z,42.70
2017-08-14T12:17:55.359Z,42.90
2017-08-14T12:20:22.895Z,42.90
2017-08-14T12:22:50.403Z,42.90
2017-08-14T12:25:17.865Z,43.00
2017-08-14T12:27:45.393Z,43.00
2017-08-14T12:30:12.878Z,43.10
2017-08-14T12:32:40.344Z,43.00
2017-08-14T12:35:07.813Z,43.00
2017-08-14T12:37:35.317Z,43.00
2017-08-14T12:40:02.781Z,43.00
2017-08-14T12:42:30.263Z,42.50
2017-08-14T12:44:57.740Z,42.40
2017-08-14T12:47:25.231Z,42.30
2017-08-14T12:49:52.697Z,42.30
2017-08-14T12:52:20.171Z,41.70
2017-08-14T12:54:47.634Z,41.30
2017-08-14T12:57:15.104Z,41.20
2017-08-14T12:59:42.570Z,41.20
2017-08-14T13:02:10.048Z,41.10
2017-08-14T13:04:37.506Z,41.20
2017-08-14T13:07:04.988Z,41.30
2017-08-14T13:09:32.472Z,41.50
2017-08-14T13:11:59.984Z,41.50
2017-08-14T13:14:27.457Z,41.60
2017-08-14T13:16:54.931Z,41.60
2017-08-14T13:19:22.603Z,41.80
2017-08-14T13:21:50.064Z,41.90
2017-08-14T13:24:17.548Z,42.00
2017-08-14T13:26:45.795Z,39.80
2017-08-14T13:29:13.315Z,39.70
2017-08-14T13:31:40.781Z,38.40
2017-08-14T13:34:08.279Z,37.50
2017-08-14T13:36:35.730Z,36.90
2017-08-14T13:39:03.212Z,36.30
2017-08-14T13:41:30.674Z,35.80
2017-08-14T13:43:58.171Z,35.50
2017-08-14T13:46:25.636Z,35.20
2017-08-14T13:48:53.132Z,35.00
2017-08-14T13:51:20.611Z,34.90
2017-08-14T13:53:48.086Z,34.80
2017-08-14T13:56:15.644Z,34.70
2017-08-14T13:58:43.237Z,34.60
2017-08-14T14:01:10.819Z,34.50
2017-08-14T14:03:38.325Z,34.40
2017-08-14T14:06:05.891Z,34.30
2017-08-14T14:08:33.355Z,34.00
2017-08-14T14:11:00.946Z,33.80
2017-08-14T14:13:28.511Z,33.80
2017-08-14T14:15:55.982Z,33.60
2017-08-14T14:18:23.450Z,33.10
2017-08-14T14:20:50.940Z,32.80
2017-08-14T14:23:18.410Z,32.80
2017-08-14T14:25:45.867Z,33.00
2017-08-14T14:28:13.350Z,33.00
2017-08-14T14:30:40.821Z,32.90
2017-08-14T14:33:08.369Z,32.90
2017-08-14T14:35:35.879Z,33.00
2017-08-14T14:38:03.376Z,33.00
2017-08-14T14:40:30.858Z,32.80
2017-08-14T14:42:58.338Z,32.70
2017-08-14T14:45:25.809Z,32.50
2017-08-14T14:47:53.277Z,32.50
2017-08-14T14:50:20.770Z,32.60
2017-08-14T14:52:48.242Z,32.60
2017-08-14T14:55:15.752Z,32.50
2017-08-14T14:57:43.273Z,32.50
2017-08-14T15:00:11.560Z,32.30
2017-08-14T15:02:39.806Z,32.30
2017-08-14T15:05:07.268Z,32.30
2017-08-14T15:07:34.766Z,32.40
2017-08-14T15:10:02.482Z,32.40
2017-08-14T15:12:29.994Z,32.40
2017-08-14T15:14:59.524Z,32.40
2017-08-14T15:17:27.020Z,32.40
2017-08-14T15:19:54.502Z,32.40
2017-08-14T15:22:21.977Z,32.30
2017-08-14T15:24:49.435Z,32.20
2017-08-14T15:27:16.905Z,32.20
2017-08-14T15:29:44.405Z,32.20
2017-08-14T15:32:11.881Z,32.20
2017-08-14T15:34:39.335Z,32.10
2017-08-14T15:37:06.809Z,32.10
2017-08-14T15:39:34.288Z,32.00
2017-08-14T15:42:01.743Z,31.90
2017-08-14T15:44:29.199Z,31.80
2017-08-14T15:46:56.664Z,31.80
2017-08-14T15:49:24.129Z,31.70
2017-08-14T15:51:51.596Z,31.70
2017-08-14T15:54:19.049Z,31.60
2017-08-14T15:56:46.504Z,31.60
2017-08-14T15:59:13.981Z,31.50
2017-08-14T16:01:41.466Z,31.40
2017-08-14T16:04:08.980Z,31.40
2017-08-14T16:06:36.435Z,31.30
2017-08-14T16:09:03.937Z,31.10
2017-08-14T16:11:31.466Z,30.90
2017-08-14T16:13:58.938Z,30.90
2017-08-14T16:16:27.776Z,31.00
2017-08-14T16:18:55.318Z,31.00
2017-08-14T16:21:22.811Z,31.00
2017-08-14T16:23:50.288Z,30.90
2017-08-14T16:26:17.746Z,30.90
2017-08-14T16:28:45.194Z,30.90
2017-08-14T16:31:12.660Z,30.90
2017-08-14T16:33:40.125Z,30.90
2017-08-14T16:36:07.598Z,30.80
2017-08-14T16:38:35.047Z,30.80
2017-08-14T16:41:02.496Z,30.70
2017-08-14T16:43:29.954Z,30.70
2017-08-14T16:45:57.417Z,30.70
2017-08-14T16:48:24.874Z,30.60
2017-08-14T16:50:52.325Z,30.60
2017-08-14T16:53:19.785Z,30.60
2017-08-14T16:55:47.240Z,30.50
2017-08-14T16:58:14.720Z,30.60
2017-08-14T17:00:42.175Z,30.50
2017-08-14T17:03:09.627Z,30.50
2017-08-14T17:05:37.108Z,30.50
2017-08-14T17:08:04.583Z,30.40
2017-08-14T17:10:32.039Z,30.40
2017-08-14T17:12:59.511Z,30.40
2017-08-14T17:15:26.959Z,30.30
2017-08-14T17:17:54.413Z,30.30
2017-08-14T17:20:21.869Z,30.30
2017-08-14T17:22:49.330Z,30.20
2017-08-14T17:25:16.779Z,30.20
2017-08-14T17:27:44.223Z,30.20
2017-08-14T17:30:11.679Z,30.20
2017-08-14T17:32:39.142Z,30.10
2017-08-14T17:35:06.598Z,30.10
2017-08-14T17:37:34.049Z,30.10
2017-08-14T17:40:01.511Z,30.00
2017-08-14T17:42:28.957Z,30.00
2017-08-14T17:44:57.188Z,29.90
2017-08-14T17:47:24.631Z,29.90
2017-08-14T17:49:52.101Z,29.90
2017-08-14T17:52:19.554Z,29.90
2017-08-14T17:54:47.016Z,29.90
2017-08-14T17:57:14.478Z,29.80
2017-08-14T17:59:41.953Z,29.90
2017-08-14T18:02:09.409Z,29.80
2017-08-14T18:04:36.853Z,29.80
2017-08-14T18:07:04.340Z,29.80
2017-08-14T18:09:31.781Z,29.70
2017-08-14T18:11:59.764Z,29.80
2017-08-14T18:14:27.234Z,29.70
2017-08-14T18:16:54.697Z,29.70
2017-08-14T18:19:22.150Z,29.70
2017-08-14T18:21:49.594Z,29.60
2017-08-14T18:24:17.053Z,29.60
2017-08-14T18:26:44.517Z,29.60
2017-08-14T18:29:11.978Z,29.50
2017-08-14T18:31:39.455Z,29.50
2017-08-14T18:34:06.901Z,29.50
2017-08-14T18:36:34.346Z,29.40
2017-08-14T18:39:01.814Z,29.40
2017-08-14T18:41:29.262Z,29.20
2017-08-14T18:43:56.731Z,29.20
2017-08-14T18:46:24.217Z,29.10
2017-08-14T18:48:51.730Z,29.10
2017-08-14T18:51:20.471Z,28.90
2017-08-14T18:53:47.954Z,28.80
2017-08-14T18:56:15.471Z,28.60
2017-08-14T18:58:43.091Z,28.40
2017-08-14T19:01:10.565Z,28.20
2017-08-14T19:03:38.058Z,28.20
2017-08-14T19:06:05.619Z,28.20
2017-08-14T19:08:35.102Z,28.20
2017-08-14T19:11:00.600Z,28.00
2017-08-14T19:13:28.072Z,27.90
2017-08-14T19:15:55.545Z,27.90
2017-08-14T19:18:22.998Z,27.80
2017-08-14T19:20:50.491Z,27.70
2017-08-14T19:23:17.943Z,27.60
2017-08-14T19:25:45.419Z,27.50
2017-08-14T19:28:13.334Z,27.50
2017-08-14T19:30:41.553Z,27.40
2017-08-14T19:33:09.010Z,27.30
2017-08-14T19:35:36.478Z,27.20
2017-08-14T19:38:03.962Z,27.10
2017-08-14T19:40:31.437Z,26.90
2017-08-14T19:42:58.904Z,26.80
2017-08-14T19:45:26.360Z,26.80
2017-08-14T19:47:54.303Z,26.70
2017-08-14T19:50:21.765Z,26.70
2017-08-14T19:52:50.445Z,26.50
2017-08-14T19:55:17.901Z,26.50
2017-08-14T19:57:45.378Z,26.50
2017-08-14T20:00:12.850Z,26.70
2017-08-14T20:02:40.354Z,26.90
2017-08-14T20:05:07.833Z,27.00
2017-08-14T20:07:35.307Z,27.10
2017-08-14T20:10:03.583Z,27.20
2017-08-14T20:12:31.051Z,27.30
2017-08-14T20:14:58.511Z,27.40
2017-08-14T20:17:26.626Z,27.50
2017-08-14T20:19:54.112Z,27.50
2017-08-14T20:22:21.575Z,27.50
2017-08-14T20:24:49.040Z,27.50
2017-08-14T20:27:16.510Z,27.60
2017-08-14T20:29:43.986Z,27.60
2017-08-14T20:32:12.238Z,27.60
2017-08-14T20:34:40.818Z,27.50
2017-08-14T20:37:08.537Z,27.50
2017-08-14T20:39:36.052Z,27.50
2017-08-14T20:42:03.522Z,27.50
2017-08-14T20:44:31.035Z,27.50
2017-08-14T20:46:58.497Z,27.50
2017-08-14T20:49:25.957Z,27.50
2017-08-14T20:51:53.927Z,27.40
2017-08-14T20:54:21.385Z,27.40
2017-08-14T20:56:49.353Z,27.40
2017-08-14T20:59:16.796Z,27.40
2017-08-14T21:01:44.263Z,27.40
2017-08-14T21:04:13.345Z,27.40
2017-08-14T21:06:41.944Z,27.30
2017-08-14T21:09:09.397Z,27.30
2017-08-14T21:11:36.858Z,27.30
2017-08-14T21:14:04.511Z,27.30
2017-08-14T21:16:32.039Z,27.30
2017-08-14T21:18:59.494Z,27.20
2017-08-14T21:21:27.820Z,27.20
2017-08-14T21:23:55.276Z,27.20
2017-08-14T21:26:22.736Z,27.20
2017-08-14T21:28:50.193Z,27.20
2017-08-14T21:31:17.641Z,27.20
2017-08-14T21:33:45.189Z,27.20
2017-08-14T21:36:12.678Z,27.10
2017-08-14T21:38:40.194Z,27.10
2017-08-14T21:41:07.646Z,27.00
2017-08-14T21:43:35.121Z,27.00
2017-08-14T21:46:03.462Z,27.00
2017-08-14T21:48:32.057Z,26.90
2017-08-14T21:50:59.533Z,26.90
2017-08-14T21:53:26.990Z,27.00
2017-08-14T21:55:54.470Z,26.90
2017-08-14T21:58:21.950Z,27.00
2017-08-14T22:00:49.414Z,26.90
2017-08-14T22:03:16.877Z,26.90
2017-08-14T22:05:44.329Z,26.80
2017-08-14T22:08:11.837Z,26.80
2017-08-14T22:10:39.340Z,26.80
2017-08-14T22:13:06.828Z,26.80
2017-08-14T22:15:36.412Z,26.80
2017-08-14T22:18:03.880Z,26.80
2017-08-14T22:20:31.350Z,26.70
2017-08-14T22:22:58.825Z,26.70
2017-08-14T22:25:26.282Z,26.70
2017-08-14T22:27:53.734Z,26.70
2017-08-14T22:30:21.191Z,26.70
2017-08-14T22:32:48.644Z,26.70
2017-08-14T22:35:16.204Z,26.70
2017-08-14T22:37:43.767Z,26.60
2017-08-14T22:40:11.229Z,26.40
2017-08-14T22:42:38.685Z,26.20
2017-08-14T22:45:06.141Z,25.90
2017-08-14T22:47:33.661Z,25.80
2017-08-14T22:50:01.112Z,25.80
2017-08-14T22:52:28.584Z,25.80
2017-08-14T22:54:56.050Z,25.70
2017-08-14T22:57:23.507Z,25.70
2017-08-14T22:59:50.961Z,25.50
2017-08-14T23:02:18.419Z,25.50
2017-08-14T23:04:45.891Z,25.40
2017-08-14T23:07:13.470Z,25.40
2017-08-14T23:09:40.945Z,25.20
2017-08-14T23:12:08.402Z,25.30
2017-08-14T23:14:35.852Z,25.20
2017-08-14T23:17:03.337Z,25.30
2017-08-14T23:19:30.822Z,25.30
2017-08-14T23:21:58.288Z,25.50
2017-08-14T23:24:25.755Z,25.70
2017-08-14T23:26:53.234Z,25.80
2017-08-14T23:29:21.474Z,26.10
2017-08-14T23:31:48.927Z,26.10
2017-08-14T23:34:16.411Z,26.20
2017-08-14T23:36:43.851Z,26.20
2017-08-14T23:39:11.310Z,26.20
2017-08-14T23:41:38.758Z,26.20
2017-08-14T23:44:06.228Z,26.20
2017-08-14T23:46:33.667Z,26.30
2017-08-14T23:49:01.131Z,26.30
2017-08-14T23:51:28.597Z,26.30
2017-08-14T23:53:56.050Z,26.30
2017-08-14T23:56:23.505Z,26.30
2017-08-14T23:58:50.962Z,26.30
